createdAt,value
2023-08-14T00:00:56.650Z,39.63
2023-08-14T00:03:23.265Z,39.86
2023-08-14T00:05:51.054Z,39.63
2023-08-14T00:08:17.761Z,39.54
2023-08-14T00:10:44.207Z,39.47
2023-08-14T00:13:10.699Z,39.47
2023-08-14T00:15:37.285Z,39.98
2023-08-14T00:18:03.771Z,40.23
2023-08-14T00:20:30.244Z,40.83
2023-08-14T00:22:56.726Z,40.73
2023-08-14T00:25:23.239Z,41.09
2023-08-14T00:27:49.732Z,41.16
2023-08-14T00:30:16.237Z,42.71
2023-08-14T00:32:42.761Z,43.13
2023-08-14T00:35:10.552Z,42.91
2023-08-14T00:37:37.065Z,42.23
2023-08-14T00:40:03.525Z,43.53
2023-08-14T00:42:30.004Z,43.17
2023-08-14T00:44:56.554Z,41.44
2023-08-14T00:47:23.068Z,41.50
2023-08-14T00:49:49.547Z,41.23
2023-08-14T00:52:16.240Z,41.13
2023-08-14T00:54:47.141Z,41.46
2023-08-14T00:57:13.671Z,41.54
2023-08-14T00:59:40.132Z,41.59
2023-08-14T01:02:06.705Z,41.13
2023-08-14T01:04:33.268Z,41.36
2023-08-14T01:07:00.987Z,41.14
2023-08-14T01:09:29.324Z,40.92
2023-08-14T01:11:55.844Z,40.87
2023-08-14T01:14:22.318Z,41.40
2023-08-14T01:16:48.781Z,41.80
2023-08-14T01:19:15.264Z,42.08
2023-08-14T01:21:41.734Z,41.98
2023-08-14T01:24:08.215Z,42.26
2023-08-14T01:26:34.750Z,42.38
2023-08-14T01:29:03.734Z,43.02
2023-08-14T01:31:30.903Z,42.93
2023-08-14T01:33:57.425Z,42.77
2023-08-14T01:36:23.947Z,42.81
2023-08-14T01:38:50.390Z,43.33
2023-08-14T01:41:16.847Z,42.32
2023-08-14T01:43:43.328Z,41.62
2023-08-14T01:46:09.846Z,41.52
2023-08-14T01:48:36.335Z,41.67
2023-08-14T01:51:02.782Z,41.50
2023-08-14T01:53:29.317Z,41.47
2023-08-14T01:55:55.805Z,41.22
2023-08-14T01:58:22.321Z,41.33
2023-08-14T02:00:48.858Z,44.06
2023-08-14T02:03:15.383Z,46.91
2023-08-14T02:05:41.911Z,46.40
2023-08-14T02:08:08.399Z,45.31
2023-08-14T02:10:34.872Z,44.54
2023-08-14T02:13:01.270Z,42.96
2023-08-14T02:15:27.846Z,42.71
2023-08-14T02:17:54.380Z,42.10
2023-08-14T02:20:20.880Z,42.25
2023-08-14T02:22:47.277Z,42.71
2023-08-14T02:25:13.774Z,42.73
2023-08-14T02:27:40.171Z,42.37
2023-08-14T02:30:06.619Z,42.59
2023-08-14T02:32:33.237Z,42.46
2023-08-14T02:34:59.902Z,42.42
2023-08-14T02:37:26.422Z,42.19
2023-08-14T02:39:52.965Z,43.29
2023-08-14T02:42:19.738Z,43.19
2023-08-14T02:44:46.637Z,43.47
2023-08-14T02:47:13.061Z,43.50
2023-08-14T02:49:39.502Z,43.47
2023-08-14T02:52:05.973Z,42.45
2023-08-14T02:54:32.433Z,42.38
2023-08-14T02:56:59.048Z,42.22
2023-08-14T02:59:25.550Z,42.38
2023-08-14T03:01:52.196Z,42.22
2023-08-14T03:04:18.726Z,42.34
2023-08-14T03:06:45.177Z,42.58
2023-08-14T03:09:11.669Z,42.18
2023-08-14T03:11:38.126Z,42.25
2023-08-14T03:14:04.557Z,42.14
2023-08-14T03:16:31.037Z,42.33
2023-08-14T03:18:57.519Z,42.19
2023-08-14T03:21:24.065Z,41.95
2023-08-14T03:23:50.520Z,41.75
2023-08-14T03:26:17.154Z,42.21
2023-08-14T03:28:43.630Z,41.75
2023-08-14T03:31:10.184Z,41.75
2023-08-14T03:33:36.620Z,42.09
2023-08-14T03:36:03.050Z,42.20
2023-08-14T03:38:29.749Z,41.97
2023-08-14T03:40:56.223Z,41.65
2023-08-14T03:43:22.676Z,41.91
2023-08-14T03:45:49.190Z,41.89
2023-08-14T03:48:15.653Z,41.65
2023-08-14T03:50:42.128Z,41.69
2023-08-14T03:53:08.682Z,42.24
2023-08-14T03:55:35.206Z,42.15
2023-08-14T03:58:01.601Z,42.41
2023-08-14T04:00:28.055Z,42.70
2023-08-14T04:02:56.581Z,42.56
2023-08-14T04:05:23.135Z,42.81
2023-08-14T04:07:49.554Z,42.94
2023-08-14T04:10:16.022Z,43.53
2023-08-14T04:12:42.539Z,43.35
2023-08-14T04:15:10.256Z,43.49
2023-08-14T04:17:36.746Z,43.68
2023-08-14T04:20:03.239Z,43.76
2023-08-14T04:22:30.924Z,43.49
2023-08-14T04:24:57.365Z,42.99
2023-08-14T04:27:23.777Z,43.32
2023-08-14T04:29:50.228Z,43.05
2023-08-14T04:32:16.936Z,42.80
2023-08-14T04:34:43.705Z,42.82
2023-08-14T04:37:10.138Z,43.16
2023-08-14T04:39:36.581Z,43.18
2023-08-14T04:42:03.022Z,42.77
2023-08-14T04:44:29.480Z,43.27
2023-08-14T04:47:00.192Z,44.03
2023-08-14T04:49:27.369Z,44.87
2023-08-14T04:51:53.882Z,46.70
2023-08-14T04:54:20.511Z,46.61
2023-08-14T04:56:47.054Z,46.61
2023-08-14T04:59:13.531Z,46.76
2023-08-14T05:01:40.062Z,46.68
2023-08-14T05:04:06.769Z,46.51
2023-08-14T05:06:33.396Z,46.04
2023-08-14T05:09:02.277Z,46.39
2023-08-14T05:11:30.960Z,45.66
2023-08-14T05:14:00.281Z,44.48
2023-08-14T05:16:26.784Z,44.16
2023-08-14T05:18:53.314Z,44.56
2023-08-14T05:21:19.835Z,44.28
2023-08-14T05:23:46.414Z,44.32
2023-08-14T05:26:12.963Z,44.73
2023-08-14T05:28:39.501Z,44.85
2023-08-14T05:31:06.006Z,44.93
2023-08-14T05:33:32.487Z,45.02
2023-08-14T05:35:58.980Z,45.69
2023-08-14T05:38:25.417Z,46.18
2023-08-14T05:40:53.082Z,46.16
2023-08-14T05:43:19.564Z,46.14
2023-08-14T05:45:46.086Z,45.90
2023-08-14T05:48:12.696Z,45.79
2023-08-14T05:50:41.982Z,45.56
2023-08-14T05:53:08.431Z,45.67
2023-08-14T05:55:34.820Z,45.86
2023-08-14T05:58:01.328Z,45.64
2023-08-14T06:00:27.778Z,45.60
2023-08-14T06:02:54.423Z,45.73
2023-08-14T06:05:24.381Z,45.52
2023-08-14T06:07:52.202Z,45.28
2023-08-14T06:10:18.825Z,45.22
2023-08-14T06:12:45.329Z,45.29
2023-08-14T06:15:11.735Z,45.71
2023-08-14T06:17:38.176Z,45.41
2023-08-14T06:20:04.603Z,44.97
2023-08-14T06:22:31.003Z,44.78
2023-08-14T06:24:57.506Z,44.91
2023-08-14T06:27:23.934Z,44.95
2023-08-14T06:29:52.601Z,45.16
2023-08-14T06:32:19.246Z,45.27
2023-08-14T06:34:45.918Z,45.50
2023-08-14T06:37:12.381Z,45.95
2023-08-14T06:39:38.792Z,45.96
2023-08-14T06:42:05.245Z,46.16
2023-08-14T06:44:31.714Z,46.11
2023-08-14T06:46:58.174Z,46.25
2023-08-14T06:49:24.655Z,46.48
2023-08-14T06:51:51.097Z,46.56
2023-08-14T06:54:17.496Z,46.62
2023-08-14T06:56:44.037Z,46.61
2023-08-14T06:59:10.497Z,47.02
2023-08-14T07:01:36.934Z,47.59
2023-08-14T07:04:03.401Z,48.04
2023-08-14T07:06:29.877Z,47.81
2023-08-14T07:08:56.332Z,48.28
2023-08-14T07:11:22.801Z,48.09
2023-08-14T07:13:49.246Z,47.98
2023-08-14T07:16:17.424Z,47.97
2023-08-14T07:18:43.966Z,47.92
2023-08-14T07:21:10.440Z,47.71
2023-08-14T07:23:36.879Z,47.81
2023-08-14T07:26:03.370Z,48.18
2023-08-14T07:28:29.829Z,48.20
2023-08-14T07:30:59.252Z,49.50
2023-08-14T07:33:25.790Z,49.68
2023-08-14T07:35:52.831Z,51.44
2023-08-14T07:38:19.544Z,51.50
2023-08-14T07:40:55.025Z,52.16
2023-08-14T07:43:21.512Z,52.11
2023-08-14T07:45:47.985Z,51.93
2023-08-14T07:48:15.912Z,52.04
2023-08-14T07:50:43.941Z,52.92
2023-08-14T07:53:12.860Z,56.45
2023-08-14T07:55:39.335Z,55.51
2023-08-14T07:58:05.774Z,57.11
2023-08-14T08:00:32.205Z,56.38
2023-08-14T08:03:11.937Z,55.88
2023-08-14T08:05:44.114Z,55.41
2023-08-14T08:08:17.812Z,55.14
2023-08-14T08:10:48.659Z,55.89
2023-08-14T08:13:15.067Z,56.80
2023-08-14T08:18:24.055Z,56.81
2023-08-14T08:20:50.517Z,56.41
2023-08-14T08:23:28.049Z,57.00
2023-08-14T08:25:54.554Z,59.26
2023-08-14T08:28:21.148Z,59.52
2023-08-14T08:30:47.592Z,59.07
2023-08-14T08:33:26.959Z,59.50
2023-08-14T08:35:56.070Z,60.64
2023-08-14T08:38:22.593Z,62.61
2023-08-14T08:40:49.022Z,64.05
2023-08-14T08:43:16.638Z,63.40
2023-08-14T08:45:43.070Z,62.30
2023-08-14T08:48:09.650Z,61.03
2023-08-14T08:50:36.267Z,59.74
2023-08-14T08:53:02.688Z,58.75
2023-08-14T08:55:29.977Z,58.24
2023-08-14T08:57:56.556Z,57.88
2023-08-14T09:00:25.784Z,57.33
2023-08-14T09:02:52.603Z,56.66
2023-08-14T09:05:19.124Z,55.37
2023-08-14T09:07:47.242Z,55.12
2023-08-14T09:10:15.573Z,55.52
2023-08-14T09:12:44.098Z,56.99
2023-08-14T09:15:10.720Z,57.58
2023-08-14T09:17:37.373Z,56.80
2023-08-14T09:20:11.908Z,55.94
2023-08-14T09:22:42.050Z,56.38
2023-08-14T09:25:08.462Z,56.08
2023-08-14T09:27:34.931Z,55.12
2023-08-14T09:30:02.638Z,55.57
2023-08-14T09:32:29.251Z,56.75
2023-08-14T09:34:55.755Z,57.12
2023-08-14T09:37:22.235Z,56.38
2023-08-14T09:39:48.682Z,55.18
2023-08-14T09:42:15.120Z,53.03
2023-08-14T09:44:41.640Z,51.49
2023-08-14T09:47:08.167Z,49.43
2023-08-14T09:49:34.692Z,50.56
2023-08-14T09:52:01.167Z,52.45
2023-08-14T09:54:32.243Z,54.02
2023-08-14T09:57:01.964Z,53.85
2023-08-14T09:59:28.417Z,52.59
2023-08-14T10:01:55.107Z,52.55
2023-08-14T10:04:21.550Z,52.52
2023-08-14T10:06:48.108Z,53.22
2023-08-14T10:09:14.553Z,52.78
2023-08-14T10:11:41.004Z,52.24
2023-08-14T10:14:07.647Z,52.33
2023-08-14T10:16:38.399Z,52.29
2023-08-14T10:19:04.877Z,51.91
2023-08-14T10:21:31.364Z,51.74
2023-08-14T10:23:57.979Z,51.27
2023-08-14T10:26:26.681Z,50.76
2023-08-14T10:28:54.309Z,52.25
2023-08-14T10:31:20.912Z,51.89
2023-08-14T10:33:53.422Z,52.11
2023-08-14T10:36:19.861Z,53.83
2023-08-14T10:38:46.291Z,53.38
2023-08-14T10:41:12.799Z,53.04
2023-08-14T10:43:39.373Z,52.03
2023-08-14T10:46:05.994Z,51.56
2023-08-14T10:48:32.486Z,50.87
2023-08-14T10:50:58.978Z,49.99
2023-08-14T10:53:25.498Z,51.25
2023-08-14T10:55:51.936Z,50.33
2023-08-14T10:58:18.373Z,49.09
2023-08-14T11:00:44.815Z,50.82
2023-08-14T11:03:11.320Z,47.79
2023-08-14T11:05:37.768Z,48.92
2023-08-14T11:08:04.229Z,49.83
2023-08-14T11:10:30.655Z,49.93
2023-08-14T11:12:57.088Z,50.61
2023-08-14T11:15:23.642Z,49.69
2023-08-14T11:17:51.406Z,48.87
2023-08-14T11:20:17.901Z,47.53
2023-08-14T11:22:44.335Z,46.73
2023-08-14T11:25:10.810Z,46.91
2023-08-14T11:27:37.243Z,47.17
2023-08-14T11:30:06.375Z,47.48
2023-08-14T11:32:38.460Z,47.39
2023-08-14T11:35:04.940Z,46.90
2023-08-14T11:37:31.359Z,47.65
2023-08-14T11:39:57.832Z,47.68
2023-08-14T11:42:24.769Z,47.55
2023-08-14T11:44:57.428Z,47.28
2023-08-14T11:47:24.060Z,47.32
2023-08-14T11:49:50.604Z,46.96
2023-08-14T11:52:17.387Z,46.95
2023-08-14T11:54:51.624Z,46.99
2023-08-14T11:57:18.051Z,46.07
2023-08-14T11:59:44.483Z,46.01
2023-08-14T12:02:10.998Z,45.80
2023-08-14T12:04:37.477Z,45.91
2023-08-14T12:07:03.989Z,45.95
2023-08-14T12:09:30.432Z,46.07
2023-08-14T12:11:56.973Z,46.00
2023-08-14T12:14:23.429Z,45.65
2023-08-14T12:16:49.946Z,46.35
2023-08-14T12:19:17.447Z,45.45
2023-08-14T12:21:46.713Z,44.36
2023-08-14T12:24:13.196Z,44.39
2023-08-14T12:26:42.217Z,43.24
2023-08-14T12:29:08.992Z,44.73
2023-08-14T12:31:35.570Z,44.26
2023-08-14T12:34:06.866Z,44.78
2023-08-14T12:36:34.235Z,45.27
2023-08-14T12:39:00.661Z,44.85
2023-08-14T12:41:27.190Z,46.73
2023-08-14T12:43:53.784Z,46.19
2023-08-14T12:46:20.373Z,46.72
2023-08-14T12:48:46.894Z,46.93
2023-08-14T12:51:13.491Z,45.71
2023-08-14T12:53:40.001Z,46.46
2023-08-14T12:56:06.518Z,47.06
2023-08-14T12:58:33.153Z,47.47
2023-08-14T13:01:04.971Z,45.38
2023-08-14T13:03:37.134Z,44.62
2023-08-14T13:06:04.670Z,45.72
2023-08-14T13:08:31.159Z,44.67
2023-08-14T13:10:57.578Z,44.22
2023-08-14T13:13:24.026Z,45.59
2023-08-14T13:15:50.562Z,44.49
2023-08-14T13:18:17.116Z,43.84
2023-08-14T13:20:43.577Z,43.61
2023-08-14T13:23:10.049Z,43.66
2023-08-14T13:25:41.829Z,44.86
2023-08-14T13:28:08.947Z,42.93
2023-08-14T13:30:35.509Z,43.09
2023-08-14T13:33:01.982Z,43.19
2023-08-14T13:35:28.493Z,43.11
2023-08-14T13:37:56.583Z,43.10
2023-08-14T13:40:23.082Z,43.53
2023-08-14T13:42:49.640Z,43.39
2023-08-14T13:45:18.568Z,43.70
2023-08-14T13:47:53.790Z,44.23
2023-08-14T13:50:31.740Z,43.10
2023-08-14T13:52:59.942Z,43.33
2023-08-14T13:55:26.409Z,41.86
2023-08-14T13:57:59.936Z,42.31
2023-08-14T14:00:29.286Z,41.95
2023-08-14T14:02:56.437Z,42.78
2023-08-14T14:05:23.142Z,41.69
2023-08-14T14:07:53.917Z,39.82
2023-08-14T14:10:22.087Z,39.67
2023-08-14T14:13:01.545Z,40.25
2023-08-14T14:15:29.385Z,39.50
2023-08-14T14:17:55.989Z,39.31
2023-08-14T14:20:22.653Z,39.95
2023-08-14T14:22:49.507Z,39.52
2023-08-14T14:25:15.965Z,40.39
2023-08-14T14:27:42.480Z,40.35
2023-08-14T14:30:08.955Z,38.28
2023-08-14T14:32:35.471Z,38.62
2023-08-14T14:35:01.931Z,38.40
2023-08-14T14:37:28.439Z,37.64
2023-08-14T14:39:55.000Z,37.26
2023-08-14T14:42:23.450Z,37.00
2023-08-14T14:44:49.929Z,36.20
2023-08-14T14:47:16.381Z,34.17
2023-08-14T14:49:42.830Z,34.00
2023-08-14T14:52:09.320Z,36.45
2023-08-14T14:54:35.744Z,37.80
2023-08-14T14:57:02.228Z,35.96
2023-08-14T14:59:28.722Z,37.65
2023-08-14T15:01:56.117Z,40.63
2023-08-14T15:04:22.563Z,40.28
2023-08-14T15:06:49.052Z,39.28
2023-08-14T15:09:15.494Z,39.04
2023-08-14T15:11:41.987Z,36.99
2023-08-14T15:14:08.556Z,38.61
2023-08-14T15:16:35.103Z,37.90
2023-08-14T15:19:01.548Z,39.96
2023-08-14T15:21:27.954Z,40.55
2023-08-14T15:23:54.403Z,36.83
2023-08-14T15:26:20.824Z,36.99
2023-08-14T15:28:47.249Z,36.19
2023-08-14T15:31:13.740Z,36.62
2023-08-14T15:33:40.346Z,35.06
2023-08-14T15:36:06.843Z,35.31
2023-08-14T15:38:33.346Z,34.63
2023-08-14T15:40:59.856Z,34.03
2023-08-14T15:43:26.402Z,34.70
2023-08-14T15:45:52.992Z,34.59
2023-08-14T15:48:19.498Z,35.27
2023-08-14T15:50:47.714Z,35.91
2023-08-14T15:53:15.633Z,36.03
2023-08-14T15:55:42.081Z,35.38
2023-08-14T15:58:09.755Z,34.14
2023-08-14T16:00:36.234Z,33.11
2023-08-14T16:03:03.661Z,32.92
2023-08-14T16:05:31.224Z,32.91
2023-08-14T16:07:57.656Z,32.89
2023-08-14T16:10:24.158Z,32.01
2023-08-14T16:12:50.652Z,32.46
2023-08-14T16:15:19.946Z,31.64
2023-08-14T16:17:46.495Z,32.11
2023-08-14T16:20:12.917Z,32.04
2023-08-14T16:22:39.353Z,30.80
2023-08-14T16:25:05.826Z,30.26
2023-08-14T16:27:32.307Z,30.35
2023-08-14T16:29:58.855Z,28.75
2023-08-14T16:32:25.281Z,29.48
2023-08-14T16:34:51.919Z,29.73
2023-08-14T16:37:18.710Z,31.53
2023-08-14T16:39:45.598Z,32.06
2023-08-14T16:42:12.185Z,30.71
2023-08-14T16:44:38.654Z,32.00
2023-08-14T16:47:05.161Z,32.95
2023-08-14T16:49:31.664Z,32.91
2023-08-14T16:51:58.114Z,32.91
2023-08-14T16:54:24.643Z,32.85
2023-08-14T16:56:51.126Z,33.44
2023-08-14T16:59:17.567Z,34.07
2023-08-14T17:01:44.003Z,38.31
2023-08-14T17:04:13.298Z,34.53
2023-08-14T17:06:39.833Z,34.83
2023-08-14T17:09:09.054Z,41.04
2023-08-14T17:11:38.299Z,38.38
2023-08-14T17:14:04.777Z,44.12
2023-08-14T17:16:32.363Z,43.86
2023-08-14T17:19:01.908Z,44.70
2023-08-14T17:21:28.379Z,43.95
2023-08-14T17:23:54.905Z,44.68
2023-08-14T17:26:21.503Z,41.70
2023-08-14T17:28:48.010Z,41.50
2023-08-14T17:31:14.470Z,41.25
2023-08-14T17:33:40.922Z,41.13
2023-08-14T17:36:07.449Z,41.02
2023-08-14T17:38:38.844Z,40.90
2023-08-14T17:41:07.380Z,40.95
2023-08-14T17:43:38.124Z,40.00
2023-08-14T17:46:04.606Z,39.99
2023-08-14T17:48:31.091Z,39.05
2023-08-14T17:50:57.632Z,38.39
2023-08-14T17:53:24.129Z,38.65
2023-08-14T17:55:58.499Z,38.74
2023-08-14T17:58:25.060Z,38.64
2023-08-14T18:00:51.554Z,38.75
2023-08-14T18:05:48.830Z,39.19
2023-08-14T18:08:16.516Z,39.39
2023-08-14T18:13:22.789Z,39.21
2023-08-14T18:15:49.336Z,39.61
2023-08-14T18:20:53.568Z,39.59
2023-08-14T18:23:20.103Z,40.22
2023-08-14T18:25:46.504Z,40.32
2023-08-14T18:28:12.958Z,39.47
2023-08-14T18:30:39.364Z,39.12
2023-08-14T18:33:05.893Z,38.61
2023-08-14T18:35:32.359Z,38.25
2023-08-14T18:37:58.983Z,37.62
2023-08-14T18:40:25.560Z,38.66
2023-08-14T18:42:52.060Z,38.08
2023-08-14T18:45:24.774Z,38.84
2023-08-14T18:47:51.243Z,37.86
2023-08-14T18:50:17.851Z,37.14
2023-08-14T18:52:44.992Z,36.82
2023-08-14T18:55:11.404Z,36.87
2023-08-14T18:57:37.824Z,37.13
2023-08-14T19:00:04.258Z,37.26
2023-08-14T19:02:30.742Z,37.27
2023-08-14T19:04:57.220Z,36.96
2023-08-14T19:07:23.817Z,37.40
2023-08-14T19:09:50.311Z,37.01
2023-08-14T19:12:16.730Z,37.45
2023-08-14T19:14:43.166Z,37.67
2023-08-14T19:17:09.754Z,37.85
2023-08-14T19:19:36.199Z,37.61
2023-08-14T19:22:02.742Z,37.05
2023-08-14T19:24:29.213Z,36.93
2023-08-14T19:26:55.625Z,36.76
2023-08-14T19:29:22.064Z,36.88
2023-08-14T19:31:48.499Z,37.72
2023-08-14T19:34:14.962Z,37.49
2023-08-14T19:36:41.453Z,37.46
2023-08-14T19:39:09.178Z,37.40
2023-08-14T19:41:35.657Z,37.28
2023-08-14T19:44:02.207Z,37.87
2023-08-14T19:46:30.943Z,39.10
2023-08-14T19:48:57.424Z,39.50
2023-08-14T19:51:23.866Z,38.82
2023-08-14T19:53:51.564Z,39.21
2023-08-14T19:56:18.060Z,39.80
2023-08-14T19:58:44.653Z,40.19
2023-08-14T20:01:11.225Z,40.13
2023-08-14T20:03:40.954Z,39.77
2023-08-14T20:06:07.416Z,39.46
2023-08-14T20:08:35.140Z,40.81
2023-08-14T20:11:01.665Z,41.34
2023-08-14T20:13:28.255Z,41.42
2023-08-14T20:15:57.239Z,42.33
2023-08-14T20:18:26.847Z,41.93
2023-08-14T20:20:53.347Z,41.94
2023-08-14T20:23:19.821Z,42.70
2023-08-14T20:25:46.338Z,41.85
2023-08-14T20:28:12.865Z,42.70
2023-08-14T20:30:39.300Z,42.63
2023-08-14T20:33:05.785Z,42.75
2023-08-14T20:35:32.235Z,43.69
2023-08-14T20:37:58.692Z,43.53
2023-08-14T20:40:25.222Z,43.09
2023-08-14T20:42:51.648Z,42.80
2023-08-14T20:45:18.095Z,42.49
2023-08-14T20:47:44.554Z,42.69
2023-08-14T20:50:11.172Z,42.55
2023-08-14T20:52:37.602Z,42.41
2023-08-14T20:55:04.107Z,42.66
2023-08-14T20:57:30.586Z,42.31
2023-08-14T20:59:57.021Z,41.64
2023-08-14T21:02:23.659Z,41.43
2023-08-14T21:04:50.148Z,41.33
2023-08-14T21:07:16.639Z,41.10
2023-08-14T21:09:43.395Z,40.57
2023-08-14T21:12:09.929Z,40.75
2023-08-14T21:14:36.460Z,40.46
2023-08-14T21:17:02.894Z,40.88
2023-08-14T21:19:29.381Z,41.20
2023-08-14T21:21:55.781Z,41.18
2023-08-14T21:24:22.277Z,41.32
2023-08-14T21:26:48.948Z,41.38
2023-08-14T21:29:15.342Z,40.83
2023-08-14T21:31:41.796Z,41.32
2023-08-14T21:34:08.333Z,41.61
2023-08-14T21:36:34.799Z,41.03
2023-08-14T21:39:01.236Z,41.42
2023-08-14T21:41:27.670Z,40.71
2023-08-14T21:43:54.137Z,41.06
2023-08-14T21:46:20.631Z,41.04
2023-08-14T21:48:47.105Z,40.75
2023-08-14T21:51:13.496Z,41.14
2023-08-14T21:53:42.972Z,40.92
2023-08-14T21:56:09.411Z,41.01
2023-08-14T21:58:35.817Z,40.83
2023-08-14T22:01:02.308Z,40.85
2023-08-14T22:03:28.745Z,40.94
2023-08-14T22:05:55.124Z,40.59
2023-08-14T22:08:21.561Z,40.41
2023-08-14T22:10:50.428Z,40.92
2023-08-14T22:13:16.899Z,40.70
2023-08-14T22:15:46.500Z,41.05
2023-08-14T22:18:13.274Z,40.46
2023-08-14T22:20:39.708Z,40.79
2023-08-14T22:23:06.180Z,40.58
2023-08-14T22:25:32.626Z,40.31
2023-08-14T22:27:59.045Z,40.73
2023-08-14T22:30:25.508Z,40.88
2023-08-14T22:32:52.073Z,41.21
2023-08-14T22:35:18.571Z,40.93
2023-08-14T22:37:47.970Z,41.47
2023-08-14T22:40:14.397Z,41.32
2023-08-14T22:42:40.854Z,41.83
2023-08-14T22:45:07.253Z,40.98
2023-08-14T22:47:33.707Z,41.01
2023-08-14T22:50:00.291Z,40.64
2023-08-14T22:52:26.705Z,41.06
2023-08-14T22:54:53.122Z,44.04
2023-08-14T22:57:19.741Z,44.48
2023-08-14T22:59:46.386Z,44.08
2023-08-14T23:02:12.829Z,43.10
2023-08-14T23:04:39.257Z,42.09
2023-08-14T23:07:05.678Z,41.00
2023-08-14T23:09:32.190Z,41.12
2023-08-14T23:12:00.589Z,41.34
2023-08-14T23:14:27.080Z,41.12
2023-08-14T23:16:53.556Z,41.21
2023-08-14T23:19:20.074Z,41.05
2023-08-14T23:21:46.588Z,41.22
2023-08-14T23:24:15.192Z,41.46
2023-08-14T23:26:41.621Z,42.03
2023-08-14T23:29:08.065Z,42.19
2023-08-14T23:31:34.643Z,41.90
2023-08-14T23:34:01.257Z,41.54
2023-08-14T23:36:27.758Z,41.52
2023-08-14T23:38:54.227Z,41.58
2023-08-14T23:41:20.895Z,42.17
2023-08-14T23:43:47.353Z,41.91
2023-08-14T23:46:13.872Z,41.74
2023-08-14T23:48:40.395Z,41.78
2023-08-14T23:51:06.881Z,41.77
2023-08-14T23:53:33.897Z,41.34
2023-08-14T23:56:00.411Z,41.59
2023-08-14T23:58:26.870Z,41.32
